createdAt,value
2022-08-26T00:11:27.480Z,63.92
2022-08-26T00:40:06.074Z,63.94
2022-08-26T01:08:28.491Z,66.58
2022-08-26T01:37:16.403Z,66.66
2022-08-26T02:05:35.409Z,67.57
2022-08-26T02:34:16.430Z,68.13
2022-08-26T03:03:01.092Z,69.22
2022-08-26T03:31:41.178Z,70.32
2022-08-26T04:00:18.719Z,70.87
2022-08-26T04:28:40.789Z,72.95
2022-08-26T04:57:13.747Z,72.08
2022-08-26T05:26:00.923Z,71.11
2022-08-26T05:54:22.781Z,70.11
2022-08-26T06:22:42.181Z,66.7
2022-08-26T06:51:39.718Z,29.63
2022-08-26T07:20:33.867Z,26.67
2022-08-26T07:49:10.031Z,38.79
2022-08-26T08:17:23.918Z,46.24
2022-08-26T09:16:47.252Z,44.26
2022-08-26T09:45:49.955Z,43.15
2022-08-26T10:14:06.960Z,42.15
2022-08-26T10:42:41.404Z,42.21
2022-08-26T11:11:02.811Z,40.3
2022-08-26T11:39:57.079Z,39.97
2022-08-26T12:08:13.276Z,39.23
2022-08-26T12:36:34.098Z,37.69
2022-08-26T14:02:04.706Z,41.43
2022-08-26T14:30:32.908Z,61.56
2022-08-26T14:59:05.466Z,66.1
2022-08-26T15:27:31.241Z,66.46
2022-08-26T15:56:05.412Z,65.85
2022-08-26T16:24:46.913Z,62.96
2022-08-26T16:53:26.173Z,59.46
2022-08-26T17:21:42.630Z,61.11
2022-08-26T17:49:57.902Z,71.19
2022-08-26T18:18:23.798Z,68.46
2022-08-26T18:46:42.409Z,74.97
2022-08-26T19:15:12.450Z,73.58
2022-08-26T19:43:52.752Z,74.72
2022-08-26T20:12:11.759Z,71.13
2022-08-26T20:40:56.856Z,73.22
2022-08-26T21:09:31.095Z,76.09
2022-08-26T21:37:54.138Z,74.25
2022-08-26T22:06:22.533Z,75.06
2022-08-26T22:35:28.583Z,75.6
2022-08-26T23:03:32.623Z,77.4
2022-08-26T23:32:05.048Z,77.31
